WEATHER/FLIGHT PLANNING

Hattiesburg Radar

 

 

 

 

Weather Links

Flight Planning Links

 

METAR

2019/02/18 21:53 KHBG 182153Z AUTO 02009KT 10SM OVC080 13/01 A3023 RMK AO2 SLP234 T01280011 PNO

TAF

2019/02/18 12:22 TAF KHBG 181120Z 1812/1912 01011KT P6SM SCT015 OVC040 FM181600 03014G20KT P6SM BKN250 FM190200 02010KT P6SM -RA OVC050